Time;durP1;ratioP1;P1;durP2;ratioP2;P2;SDS_P1;SDS_P2;PMS_P1;PMS_P2;Temp;Humidity;BMP_temperature;BMP_pressure;BME280_temperature;BME280_humidity;BME280_pressure;Samples;Min_cycle;Max_cycle;Signal;HPM_P1;HPM_P2
2023/04/07 00:00:54;;;;;;;61.13;29.95;;;;;;;9.73;100.00;101318.78;6095360;23;20022;-76
2023/04/07 00:03:20;;;;;;;66.82;29.70;;;;;;;9.74;100.00;101322.31;6124938;23;20017;-77
2023/04/07 00:05:47;;;;;;;58.92;28.98;;;;;;;9.66;100.00;101333.38;6124338;23;20023;-76
2023/04/07 00:08:12;;;;;;;66.40;30.58;;;;;;;9.74;100.00;101331.19;6128630;23;20013;-77
2023/04/07 00:10:41;;;;;;;60.90;31.00;;;;;;;9.90;100.00;101328.56;6132100;23;20013;-76
2023/04/07 00:13:09;;;;;;;63.75;31.20;;;;;;;9.97;100.00;101324.63;6130666;23;20045;-76
2023/04/07 00:15:34;;;;;;;67.00;31.77;;;;;;;9.88;100.00;101327.78;6128743;23;20081;-76
2023/04/07 00:18:00;;;;;;;66.40;31.13;;;;;;;9.93;100.00;101331.06;6098512;23;20025;-76
2023/04/07 00:20:26;;;;;;;68.15;31.63;;;;;;;9.88;100.00;101329.56;6121989;23;20060;-76
2023/04/07 00:22:51;;;;;;;68.80;33.03;;;;;;;9.88;100.00;101332.25;6122096;23;20507;-77
2023/04/07 00:25:19;;;;;;;72.43;33.70;;;;;;;9.98;100.00;101328.16;6122071;23;20421;-76
2023/04/07 00:27:45;;;;;;;83.10;35.42;;;;;;;10.06;100.00;101332.13;6128143;23;20025;-77
2023/04/07 00:30:11;;;;;;;85.47;36.78;;;;;;;9.87;100.00;101331.38;6134997;23;20009;-76
2023/04/07 00:32:36;;;;;;;91.18;38.45;;;;;;;9.78;100.00;101327.41;6123969;23;20434;-76
2023/04/07 00:35:02;;;;;;;89.20;39.92;;;;;;;9.80;100.00;101327.34;6097480;23;20315;-76
2023/04/07 00:37:28;;;;;;;90.72;38.05;;;;;;;9.97;100.00;101329.97;6124588;23;20013;-76
2023/04/07 00:39:58;;;;;;;100.07;39.53;;;;;;;9.88;100.00;101330.44;6100429;23;20017;-76
2023/04/07 00:42:23;;;;;;;85.47;38.50;;;;;;;9.88;100.00;101334.91;6123940;23;20033;-76
2023/04/07 00:44:49;;;;;;;87.72;36.80;;;;;;;9.77;100.00;101331.00;6124079;23;20017;-76
2023/04/07 00:47:15;;;;;;;90.70;37.67;;;;;;;9.88;100.00;101326.91;6125109;23;20170;-76
2023/04/07 00:49:41;;;;;;;96.07;37.38;;;;;;;9.87;100.00;101326.06;6097528;23;20069;-76
2023/04/07 00:52:10;;;;;;;84.50;38.15;;;;;;;9.80;100.00;101330.00;6100171;23;20029;-76
2023/04/07 00:54:41;;;;;;;89.68;38.13;;;;;;;9.85;100.00;101330.63;6097583;23;20138;-76
2023/04/07 00:57:06;;;;;;;81.60;37.55;;;;;;;9.80;100.00;101327.34;6099587;23;20014;-77
2023/04/07 00:59:33;;;;;;;88.25;38.25;;;;;;;9.84;100.00;101318.25;6095600;23;20021;-76
2023/04/07 01:02:21;;;;;;;87.28;36.92;;;;;;;9.92;100.00;101334.66;6094059;23;20025;-76
2023/04/07 01:04:54;;;;;;;91.78;37.25;;;;;;;9.79;100.00;101333.59;6068289;23;20018;-76
2023/04/07 01:07:40;;;;;;;90.88;38.72;;;;;;;9.83;100.00;101333.34;6092138;23;20083;-76
2023/04/07 01:10:13;;;;;;;89.03;36.10;;;;;;;9.79;100.00;101331.81;6097185;23;20010;-76
2023/04/07 01:12:50;;;;;;;80.47;33.70;;;;;;;9.65;100.00;101336.13;6099518;23;20074;-77
2023/04/07 01:15:21;;;;;;;87.80;34.78;;;;;;;9.66;100.00;101332.50;6095588;23;20103;-76
2023/04/07 01:18:03;;;;;;;90.75;33.10;;;;;;;9.72;100.00;101334.84;6096298;23;20032;-76
2023/04/07 01:20:32;;;;;;;86.10;32.13;;;;;;;9.66;100.00;101332.50;6097363;23;20073;-77
2023/04/07 01:23:05;;;;;;;94.20;32.05;;;;;;;9.64;100.00;101329.94;6092326;23;20057;-77
2023/04/07 01:25:54;;;;;;;95.13;33.17;;;;;;;9.69;100.00;101335.88;6095194;23;20530;-77
2023/04/07 01:28:53;;;;;;;81.63;31.10;;;;;;;9.95;100.00;101328.34;6094611;23;20045;-77
2023/04/07 01:31:21;;;;;;;83.05;27.88;;;;;;;9.73;100.00;101340.09;6096025;23;20452;-76
2023/04/07 01:33:48;;;;;;;84.15;31.35;;;;;;;9.89;100.00;101334.84;6098109;23;20017;-77
2023/04/07 01:36:15;;;;;;;81.85;28.50;;;;;;;9.68;100.00;101342.13;6099950;23;20033;-77
2023/04/07 01:38:45;;;;;;;79.45;28.42;;;;;;;9.70;100.00;101342.94;6097987;23;20645;-77
2023/04/07 01:41:15;;;;;;;77.15;26.95;;;;;;;9.90;100.00;101344.56;6073055;23;20116;-77
2023/04/07 01:43:42;;;;;;;74.65;27.67;;;;;;;9.91;100.00;101335.63;6098196;23;20100;-77
2023/04/07 01:46:11;;;;;;;72.82;27.48;;;;;;;9.88;100.00;101340.22;6097417;23;20052;-77
2023/04/07 01:48:41;;;;;;;74.85;28.15;;;;;;;9.74;100.00;101348.94;6096560;23;20041;-76
2023/04/07 01:51:06;;;;;;;77.43;27.77;;;;;;;9.76;100.00;101347.06;6096937;23;20014;-77
2023/04/07 01:53:36;;;;;;;78.75;26.00;;;;;;;9.59;100.00;101351.47;6106722;23;20024;-76
2023/04/07 01:56:03;;;;;;;81.32;26.02;;;;;;;9.62;100.00;101345.13;6102905;23;20013;-77
2023/04/07 01:58:30;;;;;;;67.10;23.52;;;;;;;9.57;100.00;101345.34;6096916;23;20020;-76
2023/04/07 02:00:57;;;;;;;69.03;23.88;;;;;;;9.53;100.00;101349.09;6070917;23;20026;-76
2023/04/07 02:03:35;;;;;;;68.35;21.58;;;;;;;9.46;100.00;101346.84;6093443;23;20093;-76
2023/04/07 02:06:06;;;;;;;54.70;20.15;;;;;;;9.50;100.00;101351.06;6097717;23;20028;-77
2023/04/07 02:08:32;;;;;;;61.97;20.35;;;;;;;9.48;100.00;101345.81;6091684;23;20076;-77
2023/04/07 02:11:02;;;;;;;53.58;20.23;;;;;;;9.45;100.00;101343.31;6093948;23;20018;-77
2023/04/07 02:13:32;;;;;;;43.58;18.20;;;;;;;9.37;100.00;101353.47;6095689;23;20026;-76
2023/04/07 02:16:00;;;;;;;45.25;16.70;;;;;;;9.41;100.00;101346.22;6067598;23;20029;-77
2023/04/07 02:18:26;;;;;;;41.78;16.77;;;;;;;9.40;100.00;101344.50;6095214;23;21090;-76
2023/04/07 02:20:53;;;;;;;41.40;15.57;;;;;;;9.27;100.00;101350.41;6091441;23;20021;-77
2023/04/07 02:23:18;;;;;;;40.17;15.65;;;;;;;9.27;100.00;101353.06;6098965;23;20366;-77
2023/04/07 02:25:44;;;;;;;43.95;14.13;;;;;;;9.24;100.00;101349.72;6104915;23;20507;-77
2023/04/07 02:28:12;;;;;;;37.97;14.05;;;;;;;9.25;100.00;101351.44;6098026;23;20958;-77
2023/04/07 02:30:41;;;;;;;35.40;15.30;;;;;;;9.38;100.00;101346.34;6095960;23;20021;-76
2023/04/07 02:33:07;;;;;;;45.22;14.80;;;;;;;9.41;100.00;101351.53;6095463;23;20010;-78
2023/04/07 02:35:32;;;;;;;34.58;15.60;;;;;;;9.33;100.00;101351.91;6092605;23;20014;-77
2023/04/07 02:38:03;;;;;;;39.75;14.98;;;;;;;9.44;100.00;101356.69;6095903;23;20072;-77
2023/04/07 02:40:29;;;;;;;41.92;15.23;;;;;;;9.25;100.00;101354.97;6098466;23;20025;-77
2023/04/07 02:42:54;;;;;;;34.22;12.32;;;;;;;9.25;100.00;101356.75;6101804;23;20014;-77
2023/04/07 02:45:22;;;;;;;30.40;12.07;;;;;;;9.07;100.00;101362.03;6091158;23;20257;-77
2023/04/07 02:47:47;;;;;;;28.77;11.80;;;;;;;9.13;100.00;101362.66;6093656;23;20699;-76
2023/04/07 02:50:17;;;;;;;33.60;11.90;;;;;;;9.19;100.00;101365.91;6094481;23;20010;-76
2023/04/07 02:52:45;;;;;;;33.45;12.60;;;;;;;9.38;100.00;101368.50;6094424;23;20096;-78
2023/04/07 02:55:13;;;;;;;33.42;13.20;;;;;;;9.31;100.00;101373.28;6095435;23;20025;-77
2023/04/07 02:57:39;;;;;;;39.85;13.23;;;;;;;9.34;100.00;101372.28;6094459;23;20112;-76
2023/04/07 03:00:12;;;;;;;29.33;12.32;;;;;;;9.29;100.00;101369.84;6092141;23;20017;-77
2023/04/07 03:02:58;;;;;;;30.92;11.57;;;;;;;9.26;100.00;101370.00;6091342;23;20033;-76
2023/04/07 03:05:26;;;;;;;29.58;11.82;;;;;;;9.31;100.00;101367.09;6095668;23;20022;-77
2023/04/07 03:07:51;;;;;;;38.72;11.80;;;;;;;9.30;100.00;101368.03;6123791;23;20108;-78
2023/04/07 03:10:17;;;;;;;27.55;12.18;;;;;;;9.31;100.00;101375.94;6095732;23;20762;-77
2023/04/07 03:12:43;;;;;;;30.65;13.68;;;;;;;9.34;100.00;101366.97;6124677;23;20052;-77
2023/04/07 03:15:13;;;;;;;29.17;11.13;;;;;;;9.52;100.00;101373.16;6131350;23;20080;-77
2023/04/07 03:17:44;;;;;;;29.55;12.38;;;;;;;9.58;100.00;101368.38;6101118;23;20013;-77
2023/04/07 03:20:10;;;;;;;31.27;12.20;;;;;;;9.40;100.00;101368.44;6123233;23;20060;-78
2023/04/07 03:22:36;;;;;;;32.78;12.93;;;;;;;9.36;100.00;101369.53;6073700;23;20043;-78
2023/04/07 03:25:06;;;;;;;30.38;12.05;;;;;;;9.30;100.00;101363.59;6074586;23;20041;-77
2023/04/07 03:27:50;;;;;;;34.10;13.88;;;;;;;9.40;100.00;101360.47;6126541;23;20452;-77
2023/04/07 03:30:20;;;;;;;41.55;15.18;;;;;;;9.47;100.00;101354.75;6125808;23;20016;-78
2023/04/07 03:32:46;;;;;;;46.08;17.23;;;;;;;9.46;100.00;101354.81;6098804;23;20018;-77
2023/04/07 03:35:12;;;;;;;49.85;19.30;;;;;;;9.47;100.00;101360.06;6099248;23;20036;-77
2023/04/07 03:37:37;;;;;;;52.67;18.10;;;;;;;9.48;100.00;101360.91;6126930;23;20041;-77
2023/04/07 03:40:08;;;;;;;50.97;19.05;;;;;;;9.44;100.00;101365.56;6085285;23;20044;-77
2023/04/07 03:42:45;;;;;;;57.85;20.25;;;;;;;9.51;100.00;101364.31;6101639;23;20028;-77
2023/04/07 03:45:18;;;;;;;52.85;18.00;;;;;;;9.42;100.00;101367.41;6129203;23;20024;-78
2023/04/07 03:47:47;;;;;;;52.58;18.98;;;;;;;9.32;100.00;101371.47;6135445;23;20010;-77
2023/04/07 03:50:14;;;;;;;47.90;18.08;;;;;;;9.31;100.00;101369.75;6102081;23;20344;-76
2023/04/07 03:52:50;;;;;;;49.35;17.45;;;;;;;9.26;100.00;101379.78;6127854;23;20048;-77
2023/04/07 03:55:22;;;;;;;47.95;17.90;;;;;;;9.43;100.00;101374.47;6077865;23;20038;-78
2023/04/07 03:57:51;;;;;;;51.13;18.33;;;;;;;9.37;100.00;101380.09;6129311;23;20088;-78
2023/04/07 04:00:20;;;;;;;47.17;17.38;;;;;;;9.30;100.00;101384.88;6102386;23;20287;-77
2023/04/07 04:03:01;;;;;;;50.60;16.15;;;;;;;9.29;100.00;101379.63;6096549;23;20581;-77
2023/04/07 04:05:27;;;;;;;49.10;16.55;;;;;;;9.11;100.00;101384.03;6100194;23;20052;-77
2023/04/07 04:07:54;;;;;;;41.15;16.52;;;;;;;9.19;100.00;101386.34;6101122;23;20029;-76
2023/04/07 04:10:21;;;;;;;43.70;14.98;;;;;;;9.24;100.00;101394.97;6123761;23;20699;-77
2023/04/07 04:12:53;;;;;;;45.28;14.88;;;;;;;9.11;100.00;101400.00;6098944;23;20013;-76
2023/04/07 04:15:18;;;;;;;38.13;14.02;;;;;;;9.07;100.00;101399.28;6100462;23;20005;-77
2023/04/07 04:20:34;;;;;;;35.58;12.25;;;;;;;9.10;100.00;101395.63;6037103;23;20066;-78
2023/04/07 04:23:01;;;;;;;37.45;14.10;;;;;;;9.02;100.00;101401.31;6010785;23;20110;-78
2023/04/07 04:25:27;;;;;;;27.67;12.43;;;;;;;9.05;100.00;101400.31;6014727;23;20034;-77
2023/04/07 04:27:56;;;;;;;36.15;13.07;;;;;;;9.10;100.00;101398.28;6016131;23;20014;-78
2023/04/07 04:30:24;;;;;;;30.00;12.10;;;;;;;9.08;100.00;101395.69;6012342;23;20503;-78
2023/04/07 04:32:54;;;;;;;31.55;11.10;;;;;;;9.08;100.00;101394.81;6014535;23;20101;-79
2023/04/07 04:35:40;;;;;;;25.90;9.10;;;;;;;9.03;100.00;101397.69;6040555;23;20022;-78
2023/04/07 04:38:11;;;;;;;28.90;9.33;;;;;;;9.14;100.00;101397.22;6029963;23;20064;-76
2023/04/07 04:40:41;;;;;;;24.75;10.45;;;;;;;9.17;100.00;101397.03;6078047;23;20018;-77
2023/04/07 04:43:10;;;;;;;20.77;9.10;;;;;;;9.14;100.00;101399.00;6053561;23;20017;-77
2023/04/07 04:45:38;;;;;;;26.30;9.93;;;;;;;9.19;100.00;101397.84;6102918;23;20016;-76
2023/04/07 04:48:05;;;;;;;21.52;10.77;;;;;;;9.31;100.00;101402.56;6075003;23;20101;-76
2023/04/07 04:50:31;;;;;;;28.63;10.35;;;;;;;9.30;100.00;101405.31;6073071;23;20546;-77
2023/04/07 04:52:57;;;;;;;22.30;9.45;;;;;;;9.45;100.00;101401.88;6097018;23;20721;-76
2023/04/07 04:55:23;;;;;;;25.02;9.90;;;;;;;9.43;100.00;101406.41;6070659;23;20864;-76
2023/04/07 04:57:50;;;;;;;26.77;11.25;;;;;;;9.49;100.00;101407.94;6070569;23;20022;-77
2023/04/07 05:00:22;;;;;;;32.40;11.40;;;;;;;9.41;100.00;101410.09;6069105;23;20396;-77
2023/04/07 05:02:54;;;;;;;25.90;9.50;;;;;;;9.33;100.00;101407.78;6044295;23;20021;-77
2023/04/07 05:05:20;;;;;;;30.70;9.93;;;;;;;9.45;100.00;101417.00;6094844;23;20014;-76
2023/04/07 05:07:47;;;;;;;29.17;10.65;;;;;;;9.43;100.00;101416.19;6071966;23;20108;-78
2023/04/07 05:10:15;;;;;;;29.45;10.55;;;;;;;9.38;100.00;101418.22;6066616;23;20742;-78
2023/04/07 05:12:46;;;;;;;36.67;12.40;;;;;;;9.19;100.00;101416.47;6049069;23;20024;-78
2023/04/07 05:15:24;;;;;;;31.63;11.38;;;;;;;9.26;100.00;101419.69;6071339;23;20009;-78
2023/04/07 05:17:52;;;;;;;34.40;11.63;;;;;;;9.37;100.00;101430.66;6072386;23;20499;-78
2023/04/07 05:20:22;;;;;;;37.90;12.43;;;;;;;9.27;100.00;101427.59;6076156;23;20073;-78
2023/04/07 05:22:48;;;;;;;34.55;13.90;;;;;;;9.32;100.00;101428.22;6074716;23;20018;-78
2023/04/07 05:25:16;;;;;;;36.72;13.30;;;;;;;9.36;100.00;101433.41;6052299;23;20013;-78
2023/04/07 05:27:44;;;;;;;41.80;12.57;;;;;;;9.28;100.00;101431.09;6074795;23;20203;-78
2023/04/07 05:30:14;;;;;;;39.95;15.15;;;;;;;9.40;100.00;101435.84;6102355;23;20326;-78
2023/04/07 05:32:42;;;;;;;44.75;15.48;;;;;;;9.45;100.00;101436.50;6072277;23;20590;-79
2023/04/07 05:35:21;;;;;;;46.85;15.50;;;;;;;9.41;100.00;101437.56;6079887;23;20093;-78
2023/04/07 05:37:52;;;;;;;44.08;14.27;;;;;;;9.48;100.00;101436.31;6077128;23;20014;-78
2023/04/07 05:40:18;;;;;;;44.08;14.43;;;;;;;9.31;100.00;101436.28;6101880;23;20010;-78
2023/04/07 05:42:43;;;;;;;48.58;15.50;;;;;;;9.47;100.00;101444.38;6078163;23;20041;-79
2023/04/07 05:45:13;;;;;;;41.65;14.95;;;;;;;9.42;100.00;101443.75;6078503;23;20025;-78
2023/04/07 05:47:42;;;;;;;43.28;15.30;;;;;;;9.48;100.00;101443.44;6077844;23;20093;-78
2023/04/07 05:50:11;;;;;;;50.60;15.00;;;;;;;9.43;100.00;101446.34;6074021;23;20017;-78
2023/04/07 05:52:37;;;;;;;51.55;16.80;;;;;;;9.64;100.00;101440.88;6073182;23;20072;-78
2023/04/07 05:55:16;;;;;;;50.40;15.02;;;;;;;9.52;100.00;101440.56;6050137;23;20449;-78
2023/04/07 05:57:43;;;;;;;47.30;17.63;;;;;;;9.66;100.00;101442.53;6076973;23;20009;-80
2023/04/07 06:00:09;;;;;;;55.70;16.38;;;;;;;9.70;100.00;101448.59;6072158;23;20435;-79
2023/04/07 06:02:39;;;;;;;40.47;15.20;;;;;;;9.70;100.00;101448.59;6092182;23;20026;-78
2023/04/07 06:05:07;;;;;;;43.47;16.40;;;;;;;9.63;100.00;101448.00;6065103;23;20076;-78
2023/04/07 06:07:32;;;;;;;44.25;15.48;;;;;;;9.75;100.00;101446.56;6039261;23;20022;-78
2023/04/07 06:09:58;;;;;;;51.38;18.05;;;;;;;9.60;100.00;101457.03;6093517;23;20028;-77
2023/04/07 06:12:24;;;;;;;49.30;17.60;;;;;;;9.90;100.00;101463.56;6066164;23;20593;-79
2023/04/07 06:14:52;;;;;;;50.65;16.40;;;;;;;9.73;100.00;101451.94;6066597;23;20776;-76
2023/04/07 06:17:17;;;;;;;48.30;16.42;;;;;;;9.95;100.00;101461.53;6063736;23;20096;-78
2023/04/07 06:19:45;;;;;;;47.03;17.45;;;;;;;9.90;100.00;101458.25;6066451;23;20080;-78
2023/04/07 06:22:10;;;;;;;44.83;15.88;;;;;;;10.03;100.00;101454.84;6066514;23;20014;-79
2023/04/07 06:24:38;;;;;;;46.67;18.35;;;;;;;10.04;100.00;101464.59;6067246;23;20020;-79
2023/04/07 06:27:03;;;;;;;44.38;16.95;;;;;;;9.89;100.00;101454.72;6043336;23;20029;-78
2023/04/07 06:29:31;;;;;;;55.92;17.17;;;;;;;9.85;100.00;101459.34;6070019;23;20014;-79
2023/04/07 06:31:56;;;;;;;39.70;14.73;;;;;;;10.01;100.00;101464.75;6094114;23;20029;-78
2023/04/07 06:34:22;;;;;;;44.78;15.02;;;;;;;10.01;100.00;101464.75;6082217;23;20456;-78
2023/04/07 06:36:48;;;;;;;33.00;13.15;;;;;;;10.35;100.00;101469.22;6079950;23;20322;-78
2023/04/07 06:39:14;;;;;;;41.88;14.48;;;;;;;10.32;100.00;101472.03;6082179;23;20035;-78
2023/04/07 06:41:41;;;;;;;34.88;14.05;;;;;;;10.28;100.00;101472.28;6079965;23;20021;-78
2023/04/07 06:44:09;;;;;;;43.38;14.63;;;;;;;10.22;100.00;101478.75;6081777;23;20081;-78
2023/04/07 06:46:35;;;;;;;36.30;14.95;;;;;;;10.48;100.00;101477.44;6082188;23;20057;-77
2023/04/07 06:49:01;;;;;;;34.50;14.30;;;;;;;10.45;100.00;101480.28;6108297;23;20040;-77
2023/04/07 06:51:26;;;;;;;36.10;12.00;;;;;;;10.30;100.00;101478.41;6081021;23;20094;-79
2023/04/07 06:53:52;;;;;;;33.63;14.13;;;;;;;10.49;100.00;101475.63;6082729;23;20014;-78
2023/04/07 06:56:17;;;;;;;30.70;12.20;;;;;;;10.41;100.00;101483.19;6107909;23;20437;-78
2023/04/07 06:58:53;;;;;;;33.72;12.90;;;;;;;10.51;100.00;101484.41;6082745;23;20029;-78
2023/04/07 07:01:18;;;;;;;34.55;12.35;;;;;;;10.78;100.00;101479.41;6079383;23;20025;-78
2023/04/07 07:03:45;;;;;;;28.88;12.60;;;;;;;10.50;100.00;101480.91;6080353;23;20017;-78
2023/04/07 07:06:10;;;;;;;28.52;13.10;;;;;;;10.82;100.00;101481.81;6057297;23;20022;-78
2023/04/07 07:08:37;;;;;;;29.38;11.30;;;;;;;10.79;100.00;101482.00;6083083;23;20040;-76
2023/04/07 07:11:08;;;;;;;26.73;11.48;;;;;;;10.92;100.00;101478.66;6109098;23;20026;-78
2023/04/07 07:13:34;;;;;;;35.45;12.63;;;;;;;10.83;100.00;101488.03;6106767;23;20044;-77
2023/04/07 07:16:06;;;;;;;27.60;11.73;;;;;;;10.80;100.00;101498.88;6080464;23;20823;-78
2023/04/07 07:18:32;;;;;;;24.92;10.88;;;;;;;10.53;100.00;101495.84;6105113;23;20014;-78
2023/04/07 07:20:57;;;;;;;26.80;10.18;;;;;;;10.54;100.00;101487.78;6080150;23;20010;-78
2023/04/07 07:23:23;;;;;;;31.10;10.90;;;;;;;10.75;100.00;101490.25;6108049;23;20096;-77
2023/04/07 07:25:48;;;;;;;28.02;10.35;;;;;;;10.50;100.00;101504.91;6109354;23;20009;-78
2023/04/07 07:28:15;;;;;;;31.45;11.90;;;;;;;10.48;100.00;101498.75;6084277;23;20030;-78
2023/04/07 07:30:40;;;;;;;26.23;11.70;;;;;;;10.63;100.00;101507.75;6084509;23;20017;-77
2023/04/07 07:33:06;;;;;;;20.65;10.75;;;;;;;10.34;100.00;101510.16;6078894;23;20602;-78
2023/04/07 07:35:32;;;;;;;24.50;9.93;;;;;;;10.40;100.00;101516.97;6078273;23;20023;-78
2023/04/07 07:37:57;;;;;;;24.52;9.95;;;;;;;10.29;100.00;101516.66;6079838;23;21270;-78
2023/04/07 07:40:26;;;;;;;22.15;10.30;;;;;;;10.65;100.00;101513.03;6076090;23;20619;-78
2023/04/07 07:42:51;;;;;;;27.20;9.80;;;;;;;10.62;100.00;101514.03;6075738;23;20053;-78
2023/04/07 07:45:18;;;;;;;19.20;10.35;;;;;;;10.75;100.00;101514.28;6070593;23;20017;-77
2023/04/07 07:47:44;;;;;;;22.58;8.98;;;;;;;10.58;100.00;101516.00;6074939;23;20018;-78
2023/04/07 07:50:10;;;;;;;25.58;9.52;;;;;;;10.65;100.00;101513.88;6075190;23;20044;-78
2023/04/07 07:52:36;;;;;;;20.70;9.05;;;;;;;10.35;100.00;101529.69;6071792;23;20520;-77
2023/04/07 07:55:01;;;;;;;16.23;8.35;;;;;;;10.38;100.00;101521.50;6072748;23;20481;-78
2023/04/07 07:57:27;;;;;;;21.35;9.05;;;;;;;10.41;100.00;101521.38;6076396;23;20768;-78
2023/04/07 07:59:53;;;;;;;21.33;9.55;;;;;;;10.45;100.00;101522.94;6070351;23;20019;-78
2023/04/07 08:02:25;;;;;;;26.90;10.23;;;;;;;10.66;100.00;101528.09;6074103;23;20034;-77
2023/04/07 08:04:50;;;;;;;23.75;9.57;;;;;;;10.65;100.00;101531.69;6075201;23;20058;-77
2023/04/07 08:07:19;;;;;;;16.85;8.13;;;;;;;10.44;100.00;101529.22;6071206;23;20418;-77
2023/04/07 08:09:44;;;;;;;16.73;8.02;;;;;;;10.86;100.00;101527.88;6070544;23;20011;-77
2023/04/07 08:12:10;;;;;;;20.73;9.52;;;;;;;10.64;100.00;101530.81;6071822;23;20033;-77
2023/04/07 08:14:36;;;;;;;26.73;8.95;;;;;;;10.94;100.00;101530.97;6073898;23;20049;-77
2023/04/07 08:17:01;;;;;;;16.10;7.60;;;;;;;10.70;100.00;101537.66;6073477;23;20014;-76
2023/04/07 08:19:27;;;;;;;12.75;7.38;;;;;;;10.97;100.00;101537.97;6068355;23;20347;-77
2023/04/07 08:21:52;;;;;;;16.13;7.63;;;;;;;11.58;100.00;101547.94;6070944;23;20014;-77
2023/04/07 08:24:18;;;;;;;15.65;7.28;;;;;;;11.32;100.00;101544.94;6069000;23;20698;-77
2023/04/07 08:26:44;;;;;;;22.02;7.40;;;;;;;11.47;100.00;101545.88;6073282;23;20202;-77
2023/04/07 08:29:15;;;;;;;14.38;6.80;;;;;;;11.67;100.00;101542.09;6072907;23;20074;-77
2023/04/07 08:31:40;;;;;;;14.90;6.82;;;;;;;11.18;100.00;101551.97;6073305;23;20010;-77
2023/04/07 08:34:09;;;;;;;11.75;6.38;;;;;;;11.18;100.00;101549.28;6087801;23;20032;-77
2023/04/07 08:36:34;;;;;;;12.40;5.97;;;;;;;11.04;100.00;101550.91;6101048;23;20014;-77
2023/04/07 08:39:01;;;;;;;11.40;5.72;;;;;;;11.25;100.00;101556.91;6098814;23;20018;-77
2023/04/07 08:41:32;;;;;;;13.38;6.10;;;;;;;11.09;100.00;101564.88;6048976;23;20753;-77
2023/04/07 08:44:00;;;;;;;16.48;5.60;;;;;;;11.16;100.00;101552.06;6051384;23;20069;-77
2023/04/07 08:46:26;;;;;;;12.57;6.40;;;;;;;11.22;100.00;101556.19;6098106;23;20109;-76
2023/04/07 08:48:54;;;;;;;11.70;5.45;;;;;;;11.09;100.00;101564.88;6093279;23;20100;-76
2023/04/07 08:51:31;;;;;;;13.52;6.13;;;;;;;11.27;100.00;101564.81;6098482;23;20033;-76
2023/04/07 08:54:04;;;;;;;11.52;5.68;;;;;;;11.11;100.00;101570.13;6099779;23;20014;-76
2023/04/07 08:56:33;;;;;;;11.75;5.18;;;;;;;11.10;100.00;101563.94;6069718;23;20021;-77
2023/04/07 08:59:00;;;;;;;9.45;5.30;;;;;;;11.31;100.00;101563.72;6104147;23;20025;-77
2023/04/07 09:01:26;;;;;;;11.90;5.43;;;;;;;11.08;100.00;101584.50;6072484;23;20022;-76
2023/04/07 09:03:52;;;;;;;15.20;6.25;;;;;;;10.89;100.00;101573.97;6099703;23;20013;-76
2023/04/07 09:06:18;;;;;;;15.68;5.30;;;;;;;11.09;100.00;101572.00;6098186;23;20029;-76
2023/04/07 09:08:43;;;;;;;14.30;5.30;;;;;;;11.11;100.00;101572.81;6070963;23;20076;-77
2023/04/07 09:11:09;;;;;;;9.35;5.75;;;;;;;11.13;100.00;101574.44;6099658;23;20045;-77
2023/04/07 09:13:35;;;;;;;9.65;4.93;;;;;;;11.15;100.00;101577.91;6098324;23;20069;-77
2023/04/07 09:16:02;;;;;;;8.50;4.85;;;;;;;11.09;100.00;101580.00;6096302;23;20045;-76
2023/04/07 09:18:27;;;;;;;11.68;4.45;;;;;;;11.06;100.00;101582.88;6097567;23;20135;-76
2023/04/07 09:20:54;;;;;;;9.73;4.35;;;;;;;10.99;100.00;101584.13;6094807;23;20014;-76
2023/04/07 09:23:46;;;;;;;11.20;4.18;;;;;;;10.71;100.00;101587.38;6093817;23;20516;-76
2023/04/07 09:26:21;;;;;;;10.35;4.30;;;;;;;11.07;100.00;101589.91;6062007;23;20025;-76
2023/04/07 09:28:53;;;;;;;7.38;4.60;;;;;;;10.98;100.00;101593.06;6095588;23;20022;-77
2023/04/07 09:31:20;;;;;;;10.93;5.25;;;;;;;11.45;100.00;101593.19;6095386;23;20013;-76
2023/04/07 09:33:49;;;;;;;10.90;4.28;;;;;;;11.39;100.00;101591.69;6072675;23;20021;-76
2023/04/07 09:36:15;;;;;;;11.35;4.60;;;;;;;11.32;100.00;101594.81;6097617;23;20017;-76
2023/04/07 09:38:42;;;;;;;12.52;4.70;;;;;;;11.55;100.00;101594.41;6072663;23;20516;-76
2023/04/07 09:41:31;;;;;;;10.30;3.67;;;;;;;11.13;100.00;101594.91;6099913;23;20017;-77
2023/04/07 09:43:57;;;;;;;7.57;3.67;;;;;;;11.20;100.00;101604.34;6100746;23;20359;-76
2023/04/07 09:46:23;;;;;;;7.63;4.20;;;;;;;11.20;100.00;101604.34;6094088;23;20037;-76
2023/04/07 09:49:01;;;;;;;7.38;4.43;;;;;;;11.01;100.00;101592.91;6096816;23;20725;-75
2023/04/07 09:51:27;;;;;;;10.82;4.10;;;;;;;11.11;100.00;101600.34;6097383;23;20120;-76
2023/04/07 09:53:53;;;;;;;8.18;4.38;;;;;;;11.21;100.00;101600.72;6098373;23;20037;-77
2023/04/07 09:56:23;;;;;;;9.15;4.30;;;;;;;11.18;100.00;101608.03;6096394;23;20761;-76
2023/04/07 09:58:50;;;;;;;10.85;4.45;;;;;;;11.18;100.00;101606.22;6073263;23;20026;-76
2023/04/07 10:01:17;;;;;;;12.57;6.20;;;;;;;11.11;100.00;101600.34;6094836;23;20016;-76
2023/04/07 10:03:46;;;;;;;8.85;4.60;;;;;;;11.06;100.00;101605.06;6098624;23;20014;-76
2023/04/07 10:06:12;;;;;;;10.30;4.90;;;;;;;11.31;100.00;101609.09;6098594;23;20010;-77
2023/04/07 10:08:40;;;;;;;12.85;4.72;;;;;;;11.15;100.00;101609.94;6073830;23;20101;-77
2023/04/07 10:11:09;;;;;;;15.60;4.95;;;;;;;11.25;100.00;101617.44;6100550;23;20013;-76
2023/04/07 10:13:36;;;;;;;10.82;5.28;;;;;;;11.35;100.00;101616.00;6100764;23;20014;-76
2023/04/07 10:16:05;;;;;;;10.05;5.28;;;;;;;11.46;100.00;101610.06;6101423;23;20429;-76
2023/04/07 10:18:33;;;;;;;12.68;5.97;;;;;;;11.33;100.00;101616.06;6070264;23;20018;-77
2023/04/07 10:21:01;;;;;;;18.85;5.60;;;;;;;11.19;100.00;101615.94;6099321;23;20021;-77
2023/04/07 10:23:54;;;;;;;16.65;5.53;;;;;;;11.32;100.00;101621.50;6099311;23;20017;-76
2023/04/07 10:26:25;;;;;;;16.77;6.32;;;;;;;11.63;100.00;101621.53;6097303;23;20108;-77
2023/04/07 10:28:59;;;;;;;9.77;4.53;;;;;;;11.90;100.00;101618.34;6097539;23;20014;-77
2023/04/07 10:31:26;;;;;;;8.32;4.78;;;;;;;12.10;100.00;101612.72;6070679;23;20639;-76
2023/04/07 10:33:53;;;;;;;7.35;4.53;;;;;;;12.67;100.00;101615.59;6097557;23;20025;-77
2023/04/07 10:36:20;;;;;;;11.02;5.40;;;;;;;12.86;100.00;101614.50;6095933;23;20660;-77
2023/04/07 10:39:07;;;;;;;9.30;5.32;;;;;;;13.08;100.00;101606.84;6098564;23;20149;-77
2023/04/07 10:41:40;;;;;;;11.50;6.20;;;;;;;12.72;100.00;101625.16;6074211;23;20028;-77
2023/04/07 10:44:08;;;;;;;8.25;4.50;;;;;;;12.57;100.00;101624.25;6099638;23;20788;-77
2023/04/07 10:46:46;;;;;;;14.13;5.65;;;;;;;12.47;100.00;101620.41;6071141;23;20018;-76
2023/04/07 10:49:13;;;;;;;10.25;5.38;;;;;;;12.34;100.00;101621.09;6095639;23;20013;-77
2023/04/07 10:51:38;;;;;;;9.98;5.65;;;;;;;11.82;100.00;101631.25;6070538;23;20033;-76
2023/04/07 10:54:22;;;;;;;10.05;5.65;;;;;;;11.74;100.00;101634.31;6096142;23;20013;-76
2023/04/07 10:57:02;;;;;;;12.48;6.88;;;;;;;11.84;100.00;101642.69;6093298;23;20788;-76
2023/04/07 10:59:31;;;;;;;15.25;6.90;;;;;;;11.86;100.00;101635.47;6070785;23;20053;-76
2023/04/07 11:02:31;;;;;;;13.65;6.07;;;;;;;11.81;100.00;101640.19;6069074;23;20014;-76
2023/04/07 11:04:56;;;;;;;15.00;6.50;;;;;;;11.80;100.00;101636.66;6048619;23;20370;-76
2023/04/07 11:07:45;;;;;;;14.98;5.97;;;;;;;12.56;100.00;101650.16;6096736;23;20024;-76
2023/04/07 11:10:12;;;;;;;14.13;6.97;;;;;;;12.71;100.00;101640.34;6095940;23;20025;-77
2023/04/07 11:12:42;;;;;;;16.63;6.93;;;;;;;12.56;100.00;101638.59;6070480;23;20332;-77
2023/04/07 11:15:21;;;;;;;11.65;6.75;;;;;;;13.09;100.00;101640.72;6097928;23;20009;-76
2023/04/07 11:18:17;;;;;;;11.02;5.55;;;;;;;13.07;100.00;101647.13;6067084;23;20230;-77
2023/04/07 11:20:45;;;;;;;18.00;7.40;;;;;;;13.33;100.00;101643.72;6096742;23;20024;-77